Time;durP1;ratioP1;P1;durP2;ratioP2;P2;SDS_P1;SDS_P2;PMS_P1;PMS_P2;Temp;Humidity;BMP_temperature;BMP_pressure;BME280_temperature;BME280_humidity;BME280_pressure;Samples;Min_cycle;Max_cycle;Signal;HPM_P1;HPM_P2
2023/10/15 00:02:14;;;;;;;2.63;0.93;;;7.20;99.90;;;;;;5096375;28;20050;-63
2023/10/15 00:04:39;;;;;;;1.65;0.82;;;7.10;99.90;;;;;;5096259;28;20112;-63
2023/10/15 00:07:06;;;;;;;0.60;0.60;;;7.20;99.90;;;;;;5114384;28;20035;-64
2023/10/15 00:09:33;;;;;;;0.77;0.70;;;7.20;99.90;;;;;;5096179;28;20039;-63
2023/10/15 00:11:59;;;;;;;1.35;0.85;;;7.20;99.90;;;;;;5096115;28;20127;-64
2023/10/15 00:14:25;;;;;;;0.80;0.70;;;7.20;99.90;;;;;;5114399;28;20075;-64
2023/10/15 00:16:51;;;;;;;0.65;0.60;;;7.20;99.90;;;;;;5096335;28;20070;-64
2023/10/15 00:19:17;;;;;;;1.13;0.80;;;7.30;99.90;;;;;;5114439;28;20123;-63
2023/10/15 00:21:42;;;;;;;0.80;0.70;;;7.30;99.90;;;;;;5095967;28;20541;-64
2023/10/15 00:24:10;;;;;;;0.70;0.70;;;7.30;99.90;;;;;;5095737;28;20039;-64
2023/10/15 00:26:39;;;;;;;0.70;0.70;;;7.30;99.90;;;;;;5096081;28;20048;-64
2023/10/15 00:29:07;;;;;;;0.80;0.80;;;7.30;99.90;;;;;;5095750;28;20047;-64
2023/10/15 00:31:34;;;;;;;1.48;1.10;;;7.20;99.90;;;;;;5078918;28;20089;-64
2023/10/15 00:33:59;;;;;;;0.85;0.60;;;7.20;99.90;;;;;;5114169;28;20122;-64
2023/10/15 00:36:27;;;;;;;0.93;0.60;;;7.20;99.90;;;;;;5095609;28;20093;-64
2023/10/15 00:38:52;;;;;;;0.98;0.60;;;7.20;99.90;;;;;;5113452;28;20079;-64
2023/10/15 00:41:18;;;;;;;1.55;0.80;;;7.20;99.90;;;;;;5095552;28;20518;-64
2023/10/15 00:43:51;;;;;;;2.92;1.23;;;7.20;99.90;;;;;;5113738;28;20043;-64
2023/10/15 00:46:18;;;;;;;0.60;0.60;;;7.20;99.90;;;;;;5095779;28;20047;-64
2023/10/15 00:48:45;;;;;;;1.02;0.82;;;7.20;99.90;;;;;;5113969;28;20099;-64
2023/10/15 00:51:11;;;;;;;0.70;0.70;;;7.20;99.90;;;;;;5112555;28;20048;-64
2023/10/15 00:53:54;;;;;;;4.57;1.05;;;7.20;99.90;;;;;;5113999;28;20396;-66
2023/10/15 00:56:28;;;;;;;0.70;0.70;;;7.20;99.90;;;;;;5078538;28;20036;-66
2023/10/15 00:59:07;;;;;;;1.30;0.85;;;7.20;99.90;;;;;;5113812;28;20040;-66
2023/10/15 01:01:34;;;;;;;1.02;0.70;;;7.20;99.90;;;;;;5095292;28;20136;-66
2023/10/15 01:04:02;;;;;;;1.30;0.68;;;7.20;99.90;;;;;;5095352;28;20044;-66
2023/10/15 01:06:38;;;;;;;1.02;0.60;;;7.20;99.90;;;;;;5113697;28;20078;-66
2023/10/15 01:09:09;;;;;;;0.90;0.85;;;7.20;99.90;;;;;;5113483;28;20061;-66
2023/10/15 01:11:44;;;;;;;1.20;0.80;;;8.20;99.90;;;;;;5113332;28;20044;-66
2023/10/15 01:14:11;;;;;;;0.88;0.60;;;7.20;99.90;;;;;;5113637;28;20047;-65
2023/10/15 01:16:38;;;;;;;0.80;0.68;;;7.20;99.90;;;;;;5113552;28;20100;-66
2023/10/15 01:21:53;;;;;;;0.68;0.68;;;7.20;99.90;;;;;;5095311;28;20044;-66
2023/10/15 01:24:19;;;;;;;0.75;0.68;;;7.20;99.90;;;;;;5078157;28;20046;-65
2023/10/15 01:29:33;;;;;;;5.28;1.27;;;7.20;99.90;;;;;;5113500;28;20400;-66
2023/10/15 01:32:01;;;;;;;1.02;0.68;;;7.10;99.90;;;;;;5094758;28;20050;-66
2023/10/15 01:34:27;;;;;;;0.80;0.70;;;7.10;99.90;;;;;;5113089;28;20042;-66
2023/10/15 01:37:02;;;;;;;0.73;0.70;;;7.00;99.90;;;;;;5113139;28;20035;-66
2023/10/15 01:39:37;;;;;;;1.02;0.82;;;7.00;99.90;;;;;;5078127;28;20078;-66
2023/10/15 01:42:04;;;;;;;1.17;0.80;;;7.00;99.90;;;;;;5094887;28;20090;-66
2023/10/15 01:44:33;;;;;;;1.50;0.80;;;6.90;99.90;;;;;;5095125;28;20090;-66
2023/10/15 01:49:34;;;;;;;1.50;0.90;;;6.90;99.90;;;;;;5113300;28;20069;-66
2023/10/15 01:52:09;;;;;;;0.65;0.57;;;6.90;99.90;;;;;;5098770;28;20112;-66
2023/10/15 01:54:44;;;;;;;1.25;0.88;;;6.80;99.90;;;;;;5098728;28;20040;-66
2023/10/15 01:57:15;;;;;;;0.70;0.70;;;6.80;99.90;;;;;;5117310;28;20036;-65
2023/10/15 01:59:47;;;;;;;3.15;0.85;;;6.80;99.90;;;;;;5099031;28;20101;-66
2023/10/15 02:02:15;;;;;;;0.60;0.60;;;6.80;99.90;;;;;;5098649;28;20066;-66
2023/10/15 02:04:46;;;;;;;1.75;0.80;;;6.80;99.90;;;;;;5098532;28;20502;-66
2023/10/15 02:07:20;;;;;;;0.65;0.63;;;6.80;99.90;;;;;;5098519;28;20419;-66
2023/10/15 02:09:50;;;;;;;1.45;0.75;;;6.80;99.90;;;;;;5116688;28;20055;-66
2023/10/15 02:12:18;;;;;;;1.37;0.70;;;6.80;99.90;;;;;;5116694;28;20046;-66
2023/10/15 02:14:44;;;;;;;0.60;0.50;;;6.80;99.90;;;;;;5098781;28;20273;-64
2023/10/15 02:17:24;;;;;;;0.75;0.75;;;6.90;99.90;;;;;;5098386;28;20126;-64
2023/10/15 02:19:54;;;;;;;1.27;0.70;;;6.90;99.90;;;;;;5098634;28;20036;-64
2023/10/15 02:22:21;;;;;;;0.60;0.60;;;6.90;99.90;;;;;;5098541;28;20048;-64
2023/10/15 02:24:47;;;;;;;0.57;0.57;;;6.80;99.90;;;;;;5098670;28;20510;-66
2023/10/15 02:27:24;;;;;;;0.60;0.50;;;6.80;99.90;;;;;;5116382;28;20065;-66
2023/10/15 02:29:54;;;;;;;0.98;0.60;;;6.80;99.90;;;;;;5116427;28;20051;-66
2023/10/15 02:34:52;;;;;;;0.68;0.60;;;6.70;99.90;;;;;;5098095;28;20083;-65
2023/10/15 02:37:28;;;;;;;0.70;0.57;;;6.70;99.90;;;;;;5081027;28;20039;-66
2023/10/15 02:39:58;;;;;;;0.50;0.50;;;7.00;99.90;;;;;;5116491;28;20429;-66
2023/10/15 02:42:35;;;;;;;0.70;0.70;;;6.70;99.90;;;;;;5116108;28;20055;-66
2023/10/15 02:45:06;;;;;;;1.33;0.80;;;6.70;99.90;;;;;;5116431;28;20114;-66
2023/10/15 02:47:31;;;;;;;0.57;0.50;;;6.70;99.90;;;;;;5116302;28;20424;-66
2023/10/15 02:50:01;;;;;;;1.45;0.82;;;6.70;99.90;;;;;;5116211;28;20067;-65
2023/10/15 02:52:35;;;;;;;0.90;0.70;;;6.70;99.90;;;;;;5097721;28;20487;-66
2023/10/15 02:55:11;;;;;;;1.02;0.70;;;6.70;99.90;;;;;;5097896;28;20043;-66
2023/10/15 02:57:43;;;;;;;0.60;0.60;;;6.70;99.90;;;;;;5115793;28;20032;-66
2023/10/15 03:00:18;;;;;;;1.38;0.85;;;6.70;99.90;;;;;;5116041;28;20677;-65
2023/10/15 03:02:44;;;;;;;0.65;0.65;;;6.70;99.90;;;;;;5096914;28;20039;-66
2023/10/15 03:05:14;;;;;;;0.65;0.65;;;7.00;99.90;;;;;;5115666;28;20127;-66
2023/10/15 03:07:43;;;;;;;2.10;0.93;;;6.80;99.90;;;;;;5116253;28;20047;-65
2023/10/15 03:10:24;;;;;;;1.00;0.90;;;6.90;99.90;;;;;;5115495;28;20043;-66
2023/10/15 03:12:50;;;;;;;0.60;0.60;;;6.90;99.90;;;;;;5097272;28;20082;-66
2023/10/15 03:15:17;;;;;;;0.93;0.63;;;6.90;99.90;;;;;;5115795;28;20075;-66
2023/10/15 03:17:46;;;;;;;0.80;0.60;;;6.90;99.90;;;;;;5097171;28;20085;-66
2023/10/15 03:22:44;;;;;;;1.17;0.65;;;6.90;99.90;;;;;;5115719;28;20372;-66
2023/10/15 03:25:16;;;;;;;0.70;0.55;;;6.90;99.90;;;;;;5097266;28;20071;-66
2023/10/15 03:27:48;;;;;;;0.60;0.60;;;6.80;99.90;;;;;;5096995;28;20043;-66
2023/10/15 03:30:15;;;;;;;0.50;0.50;;;6.70;99.90;;;;;;5097210;28;20084;-66
2023/10/15 03:32:44;;;;;;;0.82;0.60;;;6.70;99.90;;;;;;5113953;28;20487;-66
2023/10/15 03:35:27;;;;;;;0.60;0.60;;;6.70;99.90;;;;;;5114289;28;20074;-66
2023/10/15 03:37:59;;;;;;;0.65;0.60;;;6.70;99.90;;;;;;5115362;28;20039;-66
2023/10/15 03:40:46;;;;;;;0.50;0.50;;;6.60;99.90;;;;;;5079982;28;20047;-66
2023/10/15 03:43:15;;;;;;;0.90;0.50;;;6.60;99.90;;;;;;5115242;28;20158;-66
2023/10/15 03:45:53;;;;;;;0.88;0.60;;;6.50;99.90;;;;;;5115317;28;20085;-66
2023/10/15 03:48:29;;;;;;;1.00;0.68;;;6.50;99.90;;;;;;5113628;28;20403;-66
2023/10/15 03:50:56;;;;;;;0.77;0.50;;;6.50;99.90;;;;;;5096505;28;20048;-67
2023/10/15 03:53:28;;;;;;;0.70;0.70;;;6.60;99.90;;;;;;5114769;28;20039;-66
2023/10/15 03:55:57;;;;;;;0.40;0.40;;;6.50;99.90;;;;;;5079782;28;20031;-66
2023/10/15 03:58:23;;;;;;;0.60;0.60;;;6.60;99.90;;;;;;5114950;28;20055;-66
2023/10/15 04:00:56;;;;;;;0.77;0.77;;;6.50;99.90;;;;;;5079413;28;20044;-66
2023/10/15 04:03:35;;;;;;;0.88;0.75;;;6.50;99.90;;;;;;5114538;28;20039;-66
2023/10/15 04:06:01;;;;;;;1.95;0.80;;;6.60;99.90;;;;;;5113196;28;20055;-66
2023/10/15 04:08:32;;;;;;;0.90;0.80;;;6.60;99.90;;;;;;5114498;28;20505;-66
2023/10/15 04:10:59;;;;;;;1.17;0.98;;;6.60;99.90;;;;;;5114576;28;20034;-66
2023/10/15 04:13:27;;;;;;;0.90;0.63;;;6.60;99.90;;;;;;5113621;28;20054;-66
2023/10/15 04:15:54;;;;;;;0.70;0.70;;;6.70;99.90;;;;;;5114561;28;20391;-66
2023/10/15 04:18:24;;;;;;;0.55;0.55;;;6.60;99.90;;;;;;5114287;28;20046;-66
2023/10/15 04:20:55;;;;;;;0.95;0.68;;;6.70;99.90;;;;;;5096108;28;20487;-66
2023/10/15 04:23:38;;;;;;;0.80;0.80;;;6.70;99.90;;;;;;5095973;28;20039;-66
2023/10/15 04:26:12;;;;;;;1.13;0.77;;;6.70;99.90;;;;;;5114355;28;20509;-66
2023/10/15 04:28:38;;;;;;;0.50;0.50;;;6.70;99.90;;;;;;5114034;28;20043;-66
2023/10/15 04:31:12;;;;;;;1.40;0.90;;;7.10;99.90;;;;;;5113956;28;20135;-66
2023/10/15 04:33:41;;;;;;;1.75;0.80;;;6.80;99.90;;;;;;5078886;28;20044;-66
2023/10/15 04:36:09;;;;;;;0.70;0.70;;;6.80;99.90;;;;;;5114169;28;20075;-66
2023/10/15 04:38:38;;;;;;;0.70;0.70;;;6.80;99.90;;;;;;5095905;28;20142;-66
2023/10/15 04:41:04;;;;;;;1.33;0.95;;;6.90;99.90;;;;;;5078710;28;20278;-66
2023/10/15 04:43:41;;;;;;;1.08;0.90;;;6.80;99.90;;;;;;5095507;28;20079;-66
2023/10/15 04:46:17;;;;;;;0.60;0.60;;;6.80;99.90;;;;;;5113921;28;20043;-66
2023/10/15 04:48:45;;;;;;;0.50;0.50;;;6.70;99.90;;;;;;5113689;28;20177;-66
2023/10/15 04:51:12;;;;;;;0.68;0.68;;;6.80;99.90;;;;;;5095459;28;20399;-66
2023/10/15 04:53:44;;;;;;;1.08;0.60;;;6.70;99.90;;;;;;5078517;28;20139;-66
2023/10/15 04:56:11;;;;;;;0.82;0.60;;;6.70;99.90;;;;;;5113854;28;20108;-66
2023/10/15 04:58:37;;;;;;;1.88;0.60;;;6.60;99.90;;;;;;5095345;28;20031;-66
2023/10/15 05:01:04;;;;;;;0.60;0.60;;;6.60;99.90;;;;;;5095329;28;20050;-66
2023/10/15 05:03:34;;;;;;;0.60;0.60;;;6.60;99.90;;;;;;5095314;28;20043;-66
2023/10/15 05:06:01;;;;;;;0.40;0.40;;;6.80;99.90;;;;;;5113288;28;20059;-66
2023/10/15 05:08:27;;;;;;;0.80;0.70;;;6.60;99.90;;;;;;5113476;28;20695;-66
2023/10/15 05:10:53;;;;;;;0.50;0.50;;;7.50;99.90;;;;;;5113317;28;20128;-66
2023/10/15 05:13:19;;;;;;;0.50;0.50;;;6.70;99.90;;;;;;5113390;28;20035;-66
2023/10/15 05:15:49;;;;;;;0.77;0.57;;;6.70;99.90;;;;;;5113606;28;20032;-66
2023/10/15 05:18:15;;;;;;;0.60;0.60;;;6.80;99.90;;;;;;5113424;28;20055;-66
2023/10/15 05:20:48;;;;;;;0.60;0.60;;;6.70;99.90;;;;;;5113598;28;20111;-66
2023/10/15 05:23:15;;;;;;;1.45;0.57;;;6.70;99.90;;;;;;5113281;28;20096;-66
2023/10/15 05:25:40;;;;;;;0.50;0.50;;;6.70;99.90;;;;;;5112763;28;20038;-66
2023/10/15 05:28:06;;;;;;;0.80;0.80;;;6.70;99.90;;;;;;5113528;28;20119;-66
2023/10/15 05:30:33;;;;;;;0.52;0.50;;;6.60;99.90;;;;;;5113510;28;20070;-66
2023/10/15 05:33:00;;;;;;;0.50;0.50;;;6.60;99.90;;;;;;5113057;28;20075;-66
2023/10/15 05:35:27;;;;;;;0.80;0.65;;;6.60;99.90;;;;;;5113365;28;20459;-66
2023/10/15 05:37:54;;;;;;;0.90;0.52;;;6.60;99.90;;;;;;5113193;28;20446;-66
2023/10/15 05:40:21;;;;;;;1.35;0.68;;;6.60;99.90;;;;;;5113038;28;20115;-66
2023/10/15 05:42:48;;;;;;;0.65;0.60;;;6.50;99.90;;;;;;5095369;28;20043;-66
2023/10/15 05:45:14;;;;;;;1.27;0.50;;;6.50;99.90;;;;;;5113337;28;20044;-66
2023/10/15 05:47:44;;;;;;;1.55;0.65;;;6.50;99.90;;;;;;5113245;28;20048;-66
2023/10/15 05:50:13;;;;;;;0.57;0.57;;;6.50;99.90;;;;;;5113260;28;20042;-66
2023/10/15 05:52:39;;;;;;;0.60;0.60;;;6.40;99.90;;;;;;5113162;28;20047;-71
2023/10/15 05:55:06;;;;;;;0.82;0.70;;;6.40;99.90;;;;;;5094812;28;20039;-66
2023/10/15 05:57:33;;;;;;;1.35;0.85;;;6.40;99.90;;;;;;5113220;28;20042;-64
2023/10/15 05:59:59;;;;;;;0.75;0.75;;;6.40;99.90;;;;;;5094605;28;20040;-64
2023/10/15 06:02:25;;;;;;;0.52;0.52;;;6.40;99.90;;;;;;5094584;28;20046;-64
2023/10/15 06:04:50;;;;;;;0.52;0.52;;;6.30;99.90;;;;;;5094581;28;20403;-64
2023/10/15 06:07:16;;;;;;;1.27;0.60;;;6.40;99.90;;;;;;5112895;28;20082;-64
2023/10/15 06:09:44;;;;;;;1.20;1.00;;;6.40;99.90;;;;;;5113193;28;20047;-65
2023/10/15 06:12:10;;;;;;;1.05;0.60;;;6.40;99.90;;;;;;5094596;28;20115;-64
2023/10/15 06:14:36;;;;;;;0.60;0.60;;;6.40;99.90;;;;;;5094581;28;20079;-65
2023/10/15 06:17:02;;;;;;;0.77;0.50;;;6.40;99.90;;;;;;5113398;28;20035;-66
2023/10/15 06:19:30;;;;;;;0.60;0.50;;;6.40;99.90;;;;;;5113010;28;20088;-66
2023/10/15 06:21:55;;;;;;;0.82;0.65;;;6.40;99.90;;;;;;5113005;28;20079;-66
2023/10/15 06:24:21;;;;;;;0.77;0.60;;;7.10;99.90;;;;;;5112974;28;20090;-66
2023/10/15 06:26:48;;;;;;;0.95;0.63;;;6.50;99.90;;;;;;5094750;28;20156;-66
2023/10/15 06:29:15;;;;;;;1.38;0.65;;;6.50;99.90;;;;;;5112640;28;20552;-66
2023/10/15 06:31:41;;;;;;;0.50;0.50;;;6.70;99.90;;;;;;5112803;28;20475;-66
2023/10/15 06:34:06;;;;;;;2.13;0.80;;;6.60;99.90;;;;;;5094642;28;20043;-66
2023/10/15 06:36:33;;;;;;;1.15;0.60;;;6.60;99.90;;;;;;5112918;28;20042;-66
2023/10/15 06:39:00;;;;;;;0.63;0.52;;;6.60;99.90;;;;;;5116491;28;20083;-67
2023/10/15 06:41:26;;;;;;;0.77;0.60;;;6.60;99.90;;;;;;5097967;28;20049;-66
2023/10/15 06:43:52;;;;;;;0.95;0.70;;;6.70;99.90;;;;;;5116442;28;20049;-67
2023/10/15 06:46:17;;;;;;;0.60;0.60;;;6.70;99.90;;;;;;5116314;28;20458;-67
2023/10/15 06:48:44;;;;;;;0.60;0.60;;;6.70;99.90;;;;;;5116354;28;20154;-66
2023/10/15 06:51:13;;;;;;;0.93;0.45;;;6.70;99.90;;;;;;5116468;28;20036;-82
2023/10/15 06:53:38;;;;;;;0.95;0.70;;;6.70;99.90;;;;;;5097949;28;20511;-66
2023/10/15 06:56:07;;;;;;;0.88;0.60;;;6.70;99.90;;;;;;5097930;28;20043;-67
2023/10/15 06:58:35;;;;;;;0.75;0.60;;;6.70;99.90;;;;;;5116202;28;20031;-66
2023/10/15 07:01:02;;;;;;;1.02;0.90;;;6.70;99.90;;;;;;5097424;28;20406;-66
2023/10/15 07:03:28;;;;;;;1.42;0.70;;;6.70;99.90;;;;;;5115994;28;20040;-66
2023/10/15 07:05:54;;;;;;;0.90;0.50;;;6.60;99.90;;;;;;5097633;28;20519;-63
2023/10/15 07:08:20;;;;;;;5.32;0.80;;;6.50;99.90;;;;;;5097475;28;20031;-63
2023/10/15 07:10:46;;;;;;;1.38;0.68;;;6.50;99.90;;;;;;5115938;28;20387;-63
2023/10/15 07:13:11;;;;;;;1.15;0.82;;;7.60;99.90;;;;;;5097571;28;20081;-63
2023/10/15 07:15:38;;;;;;;0.52;0.50;;;6.50;99.90;;;;;;5097432;28;20076;-67
2023/10/15 07:18:04;;;;;;;1.58;0.68;;;6.50;99.90;;;;;;5097256;28;20039;-67
2023/10/15 07:20:30;;;;;;;0.68;0.68;;;6.50;99.90;;;;;;5080343;28;20032;-63
2023/10/15 07:22:57;;;;;;;1.42;0.80;;;6.50;99.90;;;;;;5097153;28;20122;-64
2023/10/15 07:25:27;;;;;;;0.60;0.60;;;6.50;99.90;;;;;;5115629;28;20036;-68
2023/10/15 07:27:56;;;;;;;1.02;0.77;;;6.50;99.90;;;;;;5097289;28;20055;-64
2023/10/15 07:30:22;;;;;;;1.08;0.60;;;6.60;99.90;;;;;;5115570;28;20039;-64
2023/10/15 07:32:48;;;;;;;2.35;0.88;;;6.60;99.90;;;;;;5096438;28;20514;-64
2023/10/15 07:35:15;;;;;;;0.85;0.80;;;6.60;99.90;;;;;;5114242;28;20032;-63
2023/10/15 07:37:46;;;;;;;0.57;0.57;;;6.70;99.90;;;;;;5096561;28;20039;-63
2023/10/15 07:40:19;;;;;;;0.55;0.55;;;6.70;99.90;;;;;;5096175;28;20437;-64
2023/10/15 07:42:49;;;;;;;1.35;0.65;;;6.60;99.90;;;;;;5114463;28;20066;-63
2023/10/15 07:45:16;;;;;;;0.77;0.52;;;6.60;99.90;;;;;;5095807;28;20058;-64
2023/10/15 07:47:42;;;;;;;0.50;0.50;;;6.50;99.90;;;;;;5095501;28;20051;-63
2023/10/15 07:50:10;;;;;;;0.65;0.50;;;6.50;99.90;;;;;;5095930;28;20054;-66
2023/10/15 07:52:37;;;;;;;0.50;0.50;;;6.50;99.90;;;;;;5095554;28;20089;-70
2023/10/15 07:55:05;;;;;;;0.47;0.47;;;6.60;99.90;;;;;;5095940;28;20035;-64
2023/10/15 07:57:31;;;;;;;1.00;0.60;;;6.40;99.90;;;;;;5079001;28;20479;-66
2023/10/15 07:59:59;;;;;;;0.82;0.77;;;6.40;99.90;;;;;;5095612;28;20227;-64
2023/10/15 08:02:26;;;;;;;0.70;0.70;;;6.40;99.90;;;;;;5095483;28;20051;-64
2023/10/15 08:04:56;;;;;;;0.52;0.52;;;6.40;99.90;;;;;;5113750;28;20146;-64
2023/10/15 08:07:22;;;;;;;0.50;0.50;;;6.50;99.90;;;;;;5113911;28;20073;-64
2023/10/15 08:09:51;;;;;;;0.43;0.43;;;6.40;99.90;;;;;;5113882;28;20047;-67
2023/10/15 08:12:17;;;;;;;0.50;0.50;;;6.40;99.90;;;;;;5095127;28;20043;-66
2023/10/15 08:14:47;;;;;;;0.60;0.60;;;6.50;99.90;;;;;;5113775;28;20048;-65
2023/10/15 08:17:13;;;;;;;0.90;0.70;;;6.40;99.90;;;;;;5113816;28;20399;-67
2023/10/15 08:19:39;;;;;;;0.73;0.60;;;6.40;99.90;;;;;;5095428;28;20566;-73
2023/10/15 08:22:05;;;;;;;1.35;0.90;;;6.40;99.90;;;;;;5095202;28;20130;-65
2023/10/15 08:24:30;;;;;;;0.95;0.60;;;6.40;99.90;;;;;;5113235;28;20035;-65
2023/10/15 08:26:56;;;;;;;1.98;0.70;;;6.40;99.90;;;;;;5095026;28;20039;-66
2023/10/15 08:29:22;;;;;;;0.95;0.60;;;6.50;99.90;;;;;;5113545;28;20407;-65
2023/10/15 08:31:47;;;;;;;0.50;0.50;;;6.70;99.90;;;;;;5095134;28;20040;-65
2023/10/15 08:34:13;;;;;;;0.70;0.70;;;6.90;99.90;;;;;;5094875;28;20042;-66
2023/10/15 08:36:39;;;;;;;0.57;0.57;;;7.00;99.90;;;;;;5094904;28;20437;-66
2023/10/15 08:39:08;;;;;;;0.63;0.60;;;7.00;99.90;;;;;;5111763;28;20047;-66
2023/10/15 08:41:38;;;;;;;0.50;0.50;;;7.10;99.90;;;;;;5094727;28;20075;-66
2023/10/15 08:44:08;;;;;;;0.70;0.70;;;7.10;99.90;;;;;;5094793;28;20130;-66
2023/10/15 08:46:38;;;;;;;0.52;0.52;;;7.20;99.90;;;;;;5094995;28;20498;-67
2023/10/15 08:49:08;;;;;;;0.73;0.73;;;7.30;99.90;;;;;;5094573;28;20453;-66
2023/10/15 08:51:35;;;;;;;0.88;0.75;;;7.40;99.90;;;;;;5094719;28;20437;-66
2023/10/15 08:54:02;;;;;;;1.17;0.80;;;7.50;99.90;;;;;;5094886;28;20432;-67
2023/10/15 08:56:30;;;;;;;0.98;0.73;;;7.80;99.90;;;;;;5094565;28;20039;-67
2023/10/15 08:58:57;;;;;;;0.80;0.80;;;7.70;99.90;;;;;;5094430;28;20075;-66
2023/10/15 09:01:23;;;;;;;0.65;0.65;;;7.80;99.90;;;;;;5094281;28;20043;-66
2023/10/15 09:03:52;;;;;;;1.55;0.98;;;7.90;99.90;;;;;;5112965;28;20479;-65
2023/10/15 09:06:19;;;;;;;0.80;0.60;;;8.10;99.90;;;;;;5071422;28;20427;-66
2023/10/15 09:08:45;;;;;;;0.65;0.65;;;8.10;99.90;;;;;;5072421;28;20049;-66
2023/10/15 09:11:11;;;;;;;0.50;0.50;;;8.20;99.90;;;;;;5071974;28;20055;-66
2023/10/15 09:13:37;;;;;;;0.55;0.55;;;8.20;99.90;;;;;;5070686;28;20123;-66
2023/10/15 09:16:08;;;;;;;2.35;0.90;;;8.30;99.90;;;;;;5071876;28;20037;-66
2023/10/15 09:18:37;;;;;;;0.60;0.60;;;8.40;99.90;;;;;;5072221;28;20032;-66
2023/10/15 09:21:03;;;;;;;0.68;0.68;;;8.40;99.90;;;;;;5071831;28;20043;-66
2023/10/15 09:23:37;;;;;;;0.63;0.63;;;8.60;99.90;;;;;;5071869;28;20153;-66
2023/10/15 09:26:07;;;;;;;0.70;0.70;;;8.50;99.90;;;;;;5072162;28;20403;-68
2023/10/15 09:28:36;;;;;;;0.80;0.73;;;8.40;99.90;;;;;;5071828;28;20047;-68
2023/10/15 09:31:06;;;;;;;1.10;0.70;;;8.50;99.90;;;;;;5070391;28;20432;-68
2023/10/15 09:33:33;;;;;;;0.77;0.70;;;8.50;99.90;;;;;;5072099;28;20365;-68
2023/10/15 09:36:02;;;;;;;1.33;0.90;;;8.40;99.90;;;;;;5072133;28;20098;-68
2023/10/15 09:38:31;;;;;;;0.50;0.50;;;8.30;99.90;;;;;;5071867;28;20068;-69
2023/10/15 09:40:58;;;;;;;1.48;0.82;;;8.50;99.90;;;;;;5071646;28;20119;-69
2023/10/15 09:43:28;;;;;;;1.05;0.80;;;8.50;99.90;;;;;;5070601;28;20049;-71
2023/10/15 09:45:54;;;;;;;0.70;0.70;;;8.50;99.90;;;;;;5070723;28;20129;-66
2023/10/15 09:48:24;;;;;;;1.80;0.77;;;11.00;99.90;;;;;;5071903;28;20071;-67
2023/10/15 09:50:57;;;;;;;0.98;0.60;;;8.60;99.90;;;;;;5070316;28;20057;-66
2023/10/15 09:53:34;;;;;;;0.70;0.70;;;8.70;99.90;;;;;;5070705;28;20055;-66
2023/10/15 09:56:07;;;;;;;2.08;1.00;;;8.60;99.90;;;;;;5071911;28;20076;-66
2023/10/15 09:58:34;;;;;;;1.08;0.70;;;8.70;99.90;;;;;;5070235;28;20052;-66
2023/10/15 10:01:25;;;;;;;0.70;0.70;;;8.80;99.90;;;;;;5070576;28;20053;-66
2023/10/15 10:04:40;;;;;;;0.82;0.77;;;8.90;99.90;;;;;;5071793;28;20040;-66
2023/10/15 10:07:20;;;;;;;0.60;0.60;;;9.00;99.90;;;;;;5090270;28;20164;-67
2023/10/15 10:10:10;;;;;;;0.70;0.70;;;9.00;99.90;;;;;;5091633;28;20403;-67
2023/10/15 10:12:59;;;;;;;1.53;0.93;;;9.00;99.90;;;;;;5094895;28;20119;-67
2023/10/15 10:15:36;;;;;;;0.82;0.80;;;9.00;99.90;;;;;;5077246;28;20048;-67
2023/10/15 10:18:03;;;;;;;1.33;0.85;;;9.00;99.90;;;;;;5095733;28;20097;-68
2023/10/15 10:20:33;;;;;;;0.52;0.52;;;9.00;99.90;;;;;;5094236;28;20036;-66
2023/10/15 10:23:04;;;;;;;1.85;0.90;;;9.20;99.90;;;;;;5095170;28;20082;-67
2023/10/15 10:25:42;;;;;;;1.52;0.98;;;9.20;99.90;;;;;;5095303;28;20073;-66
2023/10/15 10:28:16;;;;;;;1.25;0.70;;;9.00;99.90;;;;;;5095494;28;20043;-66
2023/10/15 10:30:55;;;;;;;1.23;0.93;;;9.80;99.90;;;;;;5095467;28;20028;-67
2023/10/15 10:33:44;;;;;;;1.25;0.98;;;9.40;99.90;;;;;;5095390;28;20044;-66
2023/10/15 10:36:27;;;;;;;0.80;0.80;;;9.50;99.90;;;;;;5095407;28;20044;-65
2023/10/15 10:39:10;;;;;;;0.70;0.70;;;9.50;99.90;;;;;;5095269;28;20040;-67
2023/10/15 10:41:48;;;;;;;0.95;0.70;;;9.60;99.90;;;;;;5095142;28;20040;-67
2023/10/15 10:44:22;;;;;;;0.95;0.73;;;9.80;99.90;;;;;;5095277;28;20036;-66
2023/10/15 10:46:50;;;;;;;0.60;0.60;;;9.70;99.90;;;;;;5094762;28;20108;-69
2023/10/15 10:49:18;;;;;;;0.60;0.60;;;9.80;99.90;;;;;;5093515;28;20119;-70
2023/10/15 10:52:06;;;;;;;0.60;0.60;;;9.90;99.90;;;;;;5093306;28;20048;-66
2023/10/15 10:54:32;;;;;;;0.98;0.90;;;9.90;99.90;;;;;;5093438;28;20047;-72
2023/10/15 10:57:02;;;;;;;1.05;0.70;;;10.00;99.90;;;;;;5093346;28;20044;-65
2023/10/15 10:59:29;;;;;;;1.15;0.88;;;10.10;99.90;;;;;;5094892;28;20036;-67
2023/10/15 11:01:55;;;;;;;1.55;0.95;;;10.20;99.90;;;;;;5093443;28;20047;-66
2023/10/15 11:04:20;;;;;;;1.00;0.70;;;10.20;99.90;;;;;;5097604;28;20074;-69
2023/10/15 11:06:46;;;;;;;0.85;0.60;;;10.20;99.90;;;;;;5114917;28;20035;-68
2023/10/15 11:09:15;;;;;;;1.60;0.82;;;10.20;99.90;;;;;;5115077;28;20043;-68
2023/10/15 11:11:48;;;;;;;1.25;1.02;;;10.20;99.90;;;;;;5114624;28;20050;-68
2023/10/15 11:14:14;;;;;;;0.95;0.70;;;10.20;99.90;;;;;;5096457;28;20467;-68
2023/10/15 11:16:45;;;;;;;1.55;0.80;;;10.20;99.90;;;;;;5115082;28;20082;-68
2023/10/15 11:19:18;;;;;;;0.80;0.60;;;10.40;99.90;;;;;;5096683;28;20118;-68
2023/10/15 11:21:45;;;;;;;1.60;0.90;;;10.60;99.90;;;;;;5114839;28;20035;-68
2023/10/15 11:24:11;;;;;;;0.60;0.60;;;10.70;99.90;;;;;;5095808;28;20487;-68
2023/10/15 11:26:41;;;;;;;1.13;0.90;;;10.60;99.90;;;;;;5114770;28;20122;-67
2023/10/15 11:29:11;;;;;;;0.47;0.47;;;10.60;99.90;;;;;;5114724;28;20462;-73
2023/10/15 11:31:38;;;;;;;1.33;0.80;;;10.50;99.90;;;;;;5079151;28;20093;-67
2023/10/15 11:34:05;;;;;;;0.93;0.60;;;10.20;99.90;;;;;;5095935;28;20036;-67
2023/10/15 11:36:35;;;;;;;1.50;0.70;;;9.80;99.90;;;;;;5096266;28;20568;-67
2023/10/15 11:39:11;;;;;;;0.85;0.70;;;9.50;99.90;;;;;;5114437;28;20036;-71
2023/10/15 11:41:43;;;;;;;1.02;0.65;;;9.30;99.90;;;;;;5114212;28;20116;-67
2023/10/15 11:44:08;;;;;;;0.60;0.60;;;9.10;99.90;;;;;;5114722;28;20035;-68
2023/10/15 11:46:37;;;;;;;1.45;0.70;;;9.00;99.90;;;;;;5114517;28;20096;-68
2023/10/15 11:49:03;;;;;;;1.02;0.88;;;9.10;99.90;;;;;;5114086;28;20547;-68
2023/10/15 11:51:29;;;;;;;0.60;0.60;;;9.20;99.90;;;;;;5078765;28;20123;-68
2023/10/15 11:53:57;;;;;;;0.82;0.65;;;9.30;99.90;;;;;;5113901;28;20093;-71
2023/10/15 11:56:26;;;;;;;1.10;1.00;;;9.50;99.90;;;;;;5113926;28;20046;-70
2023/10/15 11:58:52;;;;;;;1.20;0.80;;;9.60;99.90;;;;;;5095565;28;20048;-68
2023/10/15 12:01:18;;;;;;;0.60;0.60;;;10.60;99.90;;;;;;5095795;28;20047;-68
2023/10/15 12:03:45;;;;;;;1.17;0.93;;;9.90;99.90;;;;;;5113906;28;20040;-68
2023/10/15 12:06:11;;;;;;;0.82;0.60;;;10.60;99.90;;;;;;5113389;28;20127;-68
2023/10/15 12:08:36;;;;;;;2.47;1.02;;;10.40;99.90;;;;;;5113490;28;20177;-69
2023/10/15 12:11:02;;;;;;;0.63;0.63;;;10.70;99.90;;;;;;5095434;28;20087;-68
2023/10/15 12:13:28;;;;;;;1.73;0.93;;;11.00;99.90;;;;;;5113710;28;20028;-68
2023/10/15 12:15:53;;;;;;;0.63;0.50;;;10.90;99.90;;;;;;5095073;28;20502;-68
2023/10/15 12:18:19;;;;;;;2.38;0.93;;;10.40;99.90;;;;;;5113994;28;20046;-68
2023/10/15 12:20:45;;;;;;;0.95;0.70;;;10.20;99.90;;;;;;5095101;28;20043;-68
2023/10/15 12:23:10;;;;;;;0.70;0.70;;;10.20;99.90;;;;;;5094899;28;20510;-68
2023/10/15 12:25:38;;;;;;;0.60;0.60;;;9.20;99.90;;;;;;5095199;28;20050;-68
2023/10/15 12:28:05;;;;;;;1.23;0.80;;;9.30;99.90;;;;;;5113213;28;20119;-68
2023/10/15 12:30:32;;;;;;;0.60;0.60;;;9.10;99.90;;;;;;5113482;28;20039;-68
2023/10/15 12:32:58;;;;;;;1.08;0.80;;;9.10;99.90;;;;;;5111762;28;20040;-68
2023/10/15 12:35:24;;;;;;;1.15;0.88;;;9.00;99.90;;;;;;5112206;28;20364;-67
2023/10/15 12:37:58;;;;;;;1.02;0.80;;;9.00;99.90;;;;;;5094922;28;20075;-67
2023/10/15 12:40:33;;;;;;;0.80;0.80;;;9.10;99.90;;;;;;5113026;28;20035;-67
2023/10/15 12:43:08;;;;;;;1.10;1.00;;;9.30;99.90;;;;;;5113001;28;20051;-66
2023/10/15 12:45:34;;;;;;;1.65;0.90;;;9.40;99.90;;;;;;5095108;28;20035;-68
2023/10/15 12:48:01;;;;;;;0.90;0.80;;;9.50;99.90;;;;;;5113211;28;20100;-68
2023/10/15 12:50:30;;;;;;;0.93;0.70;;;9.50;99.90;;;;;;5094576;28;20380;-68
2023/10/15 12:52:58;;;;;;;1.58;0.90;;;9.60;99.90;;;;;;5094445;28;20044;-68
2023/10/15 12:55:24;;;;;;;1.13;0.88;;;9.50;99.90;;;;;;5094936;28;20545;-67
2023/10/15 12:57:53;;;;;;;0.75;0.73;;;9.60;99.90;;;;;;5112718;28;20040;-67
2023/10/15 13:00:21;;;;;;;1.45;1.10;;;9.60;99.90;;;;;;5113004;28;20039;-67
2023/10/15 13:02:54;;;;;;;1.50;0.80;;;10.20;99.90;;;;;;5112824;28;20475;-66
2023/10/15 13:05:24;;;;;;;1.15;0.90;;;9.80;99.90;;;;;;5112301;28;20102;-66
2023/10/15 13:07:52;;;;;;;1.25;1.00;;;9.70;99.90;;;;;;5094727;28;20403;-66
2023/10/15 13:10:20;;;;;;;1.08;0.70;;;9.70;99.90;;;;;;5094315;28;20055;-66
2023/10/15 13:12:47;;;;;;;0.95;0.82;;;9.80;99.90;;;;;;5112430;28;20044;-66
2023/10/15 13:15:18;;;;;;;1.58;0.88;;;9.80;99.90;;;;;;5112456;28;20028;-66
2023/10/15 13:17:44;;;;;;;1.13;0.75;;;9.80;99.90;;;;;;5112827;28;20038;-66
2023/10/15 13:20:13;;;;;;;0.63;0.63;;;9.80;99.90;;;;;;5112696;28;20043;-66